Time;durP1;ratioP1;P1;durP2;ratioP2;P2;SDS_P1;SDS_P2;PMS_P1;PMS_P2;Temp;Humidity;BMP_temperature;BMP_pressure;BME280_temperature;BME280_humidity;BME280_pressure;Samples;Min_cycle;Max_cycle;Signal;HPM_P1;HPM_P2
2021/11/22 00:00:27;;;;;;;6.00;2.10;;;;;;;;;;5043044;28;20474;-57
2021/11/22 00:02:54;;;;;;;4.57;1.92;;;;;;;;;;5049460;28;20044;-57
2021/11/22 00:05:20;;;;;;;6.53;2.13;;;;;;;;;;5051753;28;20033;-58
2021/11/22 00:07:46;;;;;;;4.32;2.97;;;;;;;;;;5044530;28;20026;-59
2021/11/22 00:10:12;;;;;;;5.60;2.42;;;;;;;;;;5050563;28;20082;-58
2021/11/22 00:12:39;;;;;;;7.53;2.40;;;;;;;;;;5050928;28;20057;-58
2021/11/22 00:15:07;;;;;;;5.85;2.80;;;;;;;;;;5050406;28;20045;-58
2021/11/22 00:17:34;;;;;;;6.15;2.75;;;;;;;;;;5045844;28;20037;-57
2021/11/22 00:20:00;;;;;;;4.90;2.28;;;;;;;;;;5045118;28;20029;-57
2021/11/22 00:22:26;;;;;;;6.65;2.78;;;;;;;;;;5052070;28;20032;-57
2021/11/22 00:24:52;;;;;;;8.55;2.33;;;;;;;;;;5046301;28;20030;-57
2021/11/22 00:27:18;;;;;;;4.88;2.42;;;;;;;;;;5039266;28;20414;-58
2021/11/22 00:29:44;;;;;;;5.47;2.38;;;;;;;;;;5043176;28;20044;-57
2021/11/22 00:32:11;;;;;;;3.60;2.10;;;;;;;;;;5047327;28;20159;-55
2021/11/22 00:34:44;;;;;;;5.03;2.22;;;;;;;;;;5010946;28;971974;-57
2021/11/22 00:37:14;;;;;;;7.32;2.67;;;;;;;;;;5043784;28;20481;-57
2021/11/22 00:39:41;;;;;;;6.50;2.65;;;;;;;;;;5039834;28;20030;-58
2021/11/22 00:42:07;;;;;;;11.60;2.45;;;;;;;;;;5040042;28;20041;-59
2021/11/22 00:44:34;;;;;;;6.85;2.50;;;;;;;;;;5047733;28;20038;-59
2021/11/22 00:47:00;;;;;;;5.47;2.10;;;;;;;;;;5052547;28;20036;-59
2021/11/22 00:49:26;;;;;;;4.88;2.33;;;;;;;;;;5040045;28;20013;-59
2021/11/22 00:51:52;;;;;;;4.22;2.25;;;;;;;;;;5041176;28;20033;-59
2021/11/22 00:54:18;;;;;;;5.45;2.40;;;;;;;;;;5043552;28;20440;-59
2021/11/22 00:56:44;;;;;;;4.40;1.95;;;;;;;;;;5044456;28;20128;-59
2021/11/22 00:59:10;;;;;;;5.45;2.72;;;;;;;;;;5053994;28;20135;-59
2021/11/22 01:01:40;;;;;;;10.98;2.83;;;;;;;;;;5048181;28;20037;-58
2021/11/22 01:04:06;;;;;;;7.68;2.45;;;;;;;;;;5052991;28;20094;-58
2021/11/22 01:06:32;;;;;;;7.28;2.25;;;;;;;;;;5048938;28;20387;-57
2021/11/22 01:08:58;;;;;;;4.80;2.10;;;;;;;;;;5050696;28;20511;-57
2021/11/22 01:11:24;;;;;;;11.20;2.53;;;;;;;;;;5044680;28;20057;-57
2021/11/22 01:13:50;;;;;;;4.38;2.33;;;;;;;;;;5048797;28;20028;-58
2021/11/22 01:16:16;;;;;;;4.40;2.00;;;;;;;;;;5041759;28;20537;-59
2021/11/22 01:18:42;;;;;;;6.22;2.30;;;;;;;;;;5041645;28;20028;-58
2021/11/22 01:21:08;;;;;;;8.30;2.05;;;;;;;;;;5050138;28;20531;-59
2021/11/22 01:23:34;;;;;;;4.85;2.17;;;;;;;;;;5043805;28;20129;-55
2021/11/22 01:26:00;;;;;;;4.63;2.25;;;;;;;;;;5045798;28;20048;-58
2021/11/22 01:28:27;;;;;;;8.00;2.33;;;;;;;;;;5048070;28;20593;-59
2021/11/22 01:30:53;;;;;;;5.50;2.40;;;;;;;;;;5048791;28;20088;-56
2021/11/22 01:33:19;;;;;;;5.90;2.33;;;;;;;;;;5042972;28;20048;-57
2021/11/22 01:35:46;;;;;;;8.15;2.30;;;;;;;;;;5047445;28;20068;-58
2021/11/22 01:38:12;;;;;;;4.32;2.33;;;;;;;;;;5052707;28;20025;-59
2021/11/22 01:40:38;;;;;;;7.28;2.10;;;;;;;;;;5044328;28;20028;-57
2021/11/22 01:43:04;;;;;;;5.72;2.40;;;;;;;;;;5038785;28;20351;-58
2021/11/22 01:45:34;;;;;;;10.27;2.88;;;;;;;;;;5049665;28;20039;-59
2021/11/22 01:48:00;;;;;;;9.85;2.60;;;;;;;;;;5053290;28;20081;-59
2021/11/22 01:50:27;;;;;;;9.45;2.85;;;;;;;;;;5059171;28;20481;-59
2021/11/22 01:52:53;;;;;;;5.22;2.10;;;;;;;;;;5053382;28;20025;-59
2021/11/22 01:55:21;;;;;;;6.88;2.40;;;;;;;;;;5045349;28;20043;-58
2021/11/22 01:57:47;;;;;;;4.90;1.85;;;;;;;;;;5051109;28;20472;-57
2021/11/22 02:00:18;;;;;;;4.03;2.25;;;;;;;;;;5050308;28;20078;-59
2021/11/22 02:02:45;;;;;;;5.88;1.80;;;;;;;;;;5043454;28;20029;-57
2021/11/22 02:05:11;;;;;;;6.82;2.33;;;;;;;;;;5051853;28;20104;-58
2021/11/22 02:07:37;;;;;;;5.25;2.30;;;;;;;;;;5053438;28;20075;-58
2021/11/22 02:10:04;;;;;;;3.55;2.10;;;;;;;;;;5049314;28;20039;-58
2021/11/22 02:12:34;;;;;;;6.72;2.33;;;;;;;;;;5049578;28;20560;-56
2021/11/22 02:15:00;;;;;;;6.65;2.10;;;;;;;;;;5051533;28;20033;-58
2021/11/22 02:17:26;;;;;;;3.28;1.80;;;;;;;;;;5048917;28;20048;-56
2021/11/22 02:19:52;;;;;;;2.85;1.88;;;;;;;;;;5050533;28;20429;-58
2021/11/22 02:22:18;;;;;;;4.78;2.15;;;;;;;;;;5046948;28;20036;-55
2021/11/22 02:24:45;;;;;;;3.75;1.40;;;;;;;;;;5047428;28;20030;-58
2021/11/22 02:27:10;;;;;;;3.00;1.60;;;;;;;;;;5051742;28;20074;-57
2021/11/22 02:29:37;;;;;;;2.28;1.50;;;;;;;;;;5049157;28;20033;-57
2021/11/22 02:32:03;;;;;;;5.40;1.70;;;;;;;;;;5042676;28;20478;-57
2021/11/22 02:34:29;;;;;;;4.30;1.95;;;;;;;;;;5040677;28;20044;-57
2021/11/22 02:36:55;;;;;;;2.55;1.20;;;;;;;;;;5043396;28;20057;-57
2021/11/22 02:39:21;;;;;;;3.78;1.60;;;;;;;;;;5046087;28;20035;-58
2021/11/22 02:41:47;;;;;;;7.82;1.95;;;;;;;;;;5049288;28;20067;-57
2021/11/22 02:44:13;;;;;;;5.75;1.63;;;;;;;;;;5050331;28;20037;-58
2021/11/22 02:46:39;;;;;;;6.80;1.77;;;;;;;;;;5050081;28;20129;-58
2021/11/22 02:49:05;;;;;;;2.03;1.42;;;;;;;;;;5046947;28;20017;-58
2021/11/22 02:51:31;;;;;;;2.80;1.20;;;;;;;;;;5050396;28;20079;-57
2021/11/22 02:54:01;;;;;;;2.60;1.27;;;;;;;;;;5051519;28;20033;-58
2021/11/22 02:56:32;;;;;;;2.83;1.10;;;;;;;;;;5050894;28;20035;-57
2021/11/22 02:58:58;;;;;;;2.97;1.40;;;;;;;;;;5038831;28;20038;-57
2021/11/22 03:01:23;;;;;;;2.78;1.13;;;;;;;;;;5046987;28;20056;-58
2021/11/22 03:03:51;;;;;;;3.00;1.10;;;;;;;;;;5051111;28;20361;-58
2021/11/22 03:06:17;;;;;;;2.42;1.15;;;;;;;;;;5039014;28;20047;-58
2021/11/22 03:08:45;;;;;;;4.60;1.00;;;;;;;;;;5049262;28;20032;-58
2021/11/22 03:11:11;;;;;;;2.13;1.10;;;;;;;;;;5048515;28;20032;-58
2021/11/22 03:13:38;;;;;;;4.20;1.20;;;;;;;;;;5050315;28;20138;-58
2021/11/22 03:16:04;;;;;;;2.72;0.98;;;;;;;;;;5047829;28;20025;-53
2021/11/22 03:18:30;;;;;;;4.90;1.02;;;;;;;;;;5049198;28;20021;-57
2021/11/22 03:20:57;;;;;;;1.25;0.80;;;;;;;;;;5037015;28;20028;-57
2021/11/22 03:23:23;;;;;;;2.72;1.00;;;;;;;;;;5043308;28;20029;-58
2021/11/22 03:25:49;;;;;;;2.00;0.88;;;;;;;;;;5040439;28;20108;-56
2021/11/22 03:28:17;;;;;;;2.45;0.93;;;;;;;;;;5047337;28;20025;-56
2021/11/22 03:30:43;;;;;;;1.75;0.90;;;;;;;;;;5049364;28;20045;-58
2021/11/22 03:33:09;;;;;;;1.70;0.90;;;;;;;;;;5049132;28;20758;-57
2021/11/22 03:35:35;;;;;;;1.77;0.80;;;;;;;;;;5043343;28;20108;-53
2021/11/22 03:38:01;;;;;;;1.13;0.70;;;;;;;;;;5053328;28;20025;-58
2021/11/22 03:40:28;;;;;;;1.23;0.90;;;;;;;;;;5043842;28;20025;-57
2021/11/22 03:45:29;;;;;;;1.65;0.70;;;;;;;;;;5036869;28;20172;-58
2021/11/22 03:47:55;;;;;;;9.95;1.40;;;;;;;;;;5049594;28;20131;-58
2021/11/22 03:50:21;;;;;;;3.00;1.13;;;;;;;;;;5050333;28;20022;-57
2021/11/22 03:52:47;;;;;;;1.55;0.80;;;;;;;;;;5056281;28;20025;-58
2021/11/22 03:55:13;;;;;;;2.58;0.60;;;;;;;;;;5048600;28;20090;-58
2021/11/22 03:57:39;;;;;;;2.88;0.90;;;;;;;;;;5053071;28;20036;-58
2021/11/22 04:00:05;;;;;;;4.22;1.30;;;;;;;;;;5051020;28;20060;-57
2021/11/22 04:02:31;;;;;;;1.48;0.50;;;;;;;;;;5052423;28;20108;-58
2021/11/22 04:04:57;;;;;;;1.58;0.90;;;;;;;;;;5058871;28;20032;-58
2021/11/22 04:07:23;;;;;;;1.92;0.90;;;;;;;;;;5051095;28;20056;-58
2021/11/22 04:09:50;;;;;;;1.00;0.70;;;;;;;;;;5054479;28;20025;-58
2021/11/22 04:12:16;;;;;;;1.10;0.82;;;;;;;;;;5052878;28;20033;-55
2021/11/22 04:14:42;;;;;;;1.55;0.93;;;;;;;;;;5046335;28;20038;-57
2021/11/22 04:17:08;;;;;;;0.85;0.60;;;;;;;;;;5045575;28;20039;-58
2021/11/22 04:19:34;;;;;;;0.98;0.82;;;;;;;;;;5052261;28;20029;-56
2021/11/22 04:22:00;;;;;;;0.85;0.60;;;;;;;;;;5049742;28;20021;-57
2021/11/22 04:24:26;;;;;;;4.57;0.73;;;;;;;;;;5066718;28;20055;-56
2021/11/22 04:26:52;;;;;;;5.38;0.93;;;;;;;;;;5050352;28;20025;-58
2021/11/22 04:29:18;;;;;;;0.80;0.30;;;;;;;;;;5064430;28;20495;-54
2021/11/22 04:31:44;;;;;;;1.13;0.40;;;;;;;;;;5051631;28;20052;-56
2021/11/22 04:34:10;;;;;;;3.42;0.55;;;;;;;;;;5052395;28;20053;-58
2021/11/22 04:36:36;;;;;;;1.02;0.47;;;;;;;;;;5049321;28;20397;-56
2021/11/22 04:39:02;;;;;;;2.00;0.50;;;;;;;;;;5050973;28;20025;-57
2021/11/22 04:41:28;;;;;;;2.85;0.50;;;;;;;;;;5056242;28;20082;-57
2021/11/22 04:43:54;;;;;;;1.52;0.70;;;;;;;;;;5055639;28;20025;-55
2021/11/22 04:46:20;;;;;;;4.60;0.40;;;;;;;;;;5049870;28;20053;-58
2021/11/22 04:48:46;;;;;;;0.40;0.40;;;;;;;;;;5047809;28;20028;-58
2021/11/22 04:51:13;;;;;;;1.55;0.52;;;;;;;;;;5042974;28;20139;-58
2021/11/22 04:53:39;;;;;;;2.45;0.50;;;;;;;;;;5045710;28;20452;-58
2021/11/22 04:56:05;;;;;;;1.17;0.40;;;;;;;;;;5043182;28;20100;-58
2021/11/22 04:58:31;;;;;;;0.80;0.45;;;;;;;;;;5039396;28;20094;-56
2021/11/22 05:00:57;;;;;;;0.55;0.40;;;;;;;;;;5050598;28;20029;-57
2021/11/22 05:03:23;;;;;;;1.02;0.50;;;;;;;;;;5040445;28;20030;-57
2021/11/22 05:05:49;;;;;;;2.05;0.57;;;;;;;;;;5057273;28;20037;-56
2021/11/22 05:08:15;;;;;;;0.57;0.35;;;;;;;;;;5050846;28;20377;-57
2021/11/22 05:10:43;;;;;;;1.45;0.80;;;;;;;;;;5047540;28;20025;-56
2021/11/22 05:13:10;;;;;;;0.52;0.30;;;;;;;;;;5051843;28;20484;-57
2021/11/22 05:15:37;;;;;;;0.43;0.30;;;;;;;;;;5050396;28;20040;-57
2021/11/22 05:18:04;;;;;;;0.88;0.47;;;;;;;;;;5051080;28;20063;-56
2021/11/22 05:20:30;;;;;;;1.20;0.60;;;;;;;;;;5050970;28;20044;-55
2021/11/22 05:22:57;;;;;;;0.38;0.38;;;;;;;;;;5050005;28;20032;-56
2021/11/22 05:25:23;;;;;;;1.63;0.40;;;;;;;;;;5048992;28;20068;-56
2021/11/22 05:27:49;;;;;;;1.23;0.45;;;;;;;;;;5046644;28;20824;-58
2021/11/22 05:30:16;;;;;;;2.97;0.55;;;;;;;;;;5047195;28;20021;-55
2021/11/22 05:32:42;;;;;;;0.82;0.30;;;;;;;;;;5046797;28;20041;-55
2021/11/22 05:35:08;;;;;;;0.75;0.35;;;;;;;;;;5047451;28;20078;-56
2021/11/22 05:37:35;;;;;;;0.63;0.47;;;;;;;;;;5047125;28;20104;-57
2021/11/22 05:40:02;;;;;;;0.68;0.40;;;;;;;;;;5047554;28;20029;-57
2021/11/22 05:42:28;;;;;;;0.60;0.50;;;;;;;;;;5047486;28;20055;-56
2021/11/22 05:44:54;;;;;;;0.47;0.40;;;;;;;;;;5047762;28;20072;-58
2021/11/22 05:47:20;;;;;;;0.50;0.50;;;;;;;;;;5046708;28;20541;-57
2021/11/22 05:49:46;;;;;;;0.45;0.40;;;;;;;;;;5046699;28;20693;-58
2021/11/22 05:52:12;;;;;;;1.48;0.52;;;;;;;;;;5045041;28;20025;-58
2021/11/22 05:54:47;;;;;;;2.63;0.65;;;;;;;;;;5042537;28;20041;-58
2021/11/22 05:57:14;;;;;;;1.80;0.50;;;;;;;;;;5054290;28;20024;-58
2021/11/22 05:59:40;;;;;;;0.40;0.40;;;;;;;;;;5045527;28;20025;-57
2021/11/22 06:02:06;;;;;;;1.95;0.40;;;;;;;;;;5048761;28;20025;-58
2021/11/22 06:04:32;;;;;;;0.40;0.40;;;;;;;;;;5043710;28;20358;-58
2021/11/22 06:06:58;;;;;;;0.65;0.57;;;;;;;;;;5046204;28;20071;-58
2021/11/22 06:09:23;;;;;;;1.13;0.50;;;;;;;;;;5045982;28;20021;-56
2021/11/22 06:11:50;;;;;;;0.82;0.40;;;;;;;;;;5049499;28;20645;-58
2021/11/22 06:14:16;;;;;;;1.13;0.50;;;;;;;;;;5045697;28;21968;-56
2021/11/22 06:16:42;;;;;;;0.38;0.32;;;;;;;;;;5045731;28;20036;-56
2021/11/22 06:19:08;;;;;;;1.17;0.40;;;;;;;;;;5043988;28;20021;-57
2021/11/22 06:21:34;;;;;;;2.22;0.50;;;;;;;;;;5046855;28;20120;-55
2021/11/22 06:24:03;;;;;;;0.43;0.40;;;;;;;;;;5049857;28;20115;-56
2021/11/22 06:26:30;;;;;;;0.73;0.40;;;;;;;;;;5044194;28;20027;-55
2021/11/22 06:28:56;;;;;;;0.85;0.40;;;;;;;;;;5046553;28;20487;-56
2021/11/22 06:31:22;;;;;;;0.60;0.60;;;;;;;;;;5050718;28;20025;-58
2021/11/22 06:33:48;;;;;;;0.57;0.40;;;;;;;;;;5041719;28;20057;-57
2021/11/22 06:36:14;;;;;;;0.90;0.47;;;;;;;;;;5049939;28;20099;-57
2021/11/22 06:38:40;;;;;;;1.92;0.40;;;;;;;;;;5049326;28;20033;-58
2021/11/22 06:41:06;;;;;;;0.30;0.30;;;;;;;;;;5049111;28;20021;-56
2021/11/22 06:43:32;;;;;;;0.85;0.40;;;;;;;;;;5050719;28;20048;-58
2021/11/22 06:45:58;;;;;;;0.50;0.50;;;;;;;;;;5048736;28;20025;-56
2021/11/22 06:48:24;;;;;;;0.55;0.40;;;;;;;;;;5048281;28;20689;-54
2021/11/22 06:50:50;;;;;;;0.93;0.40;;;;;;;;;;5044993;28;20026;-57
2021/11/22 06:53:21;;;;;;;0.47;0.45;;;;;;;;;;5045739;28;20422;-58
2021/11/22 06:55:47;;;;;;;0.40;0.40;;;;;;;;;;5039959;28;20493;-58
2021/11/22 06:58:13;;;;;;;0.93;0.55;;;;;;;;;;5042709;28;20037;-58
2021/11/22 07:00:40;;;;;;;1.15;0.57;;;;;;;;;;5051120;28;20029;-58
2021/11/22 07:03:06;;;;;;;0.40;0.40;;;;;;;;;;5052076;28;20028;-58
2021/11/22 07:05:32;;;;;;;0.40;0.40;;;;;;;;;;5056835;28;20496;-58
2021/11/22 07:07:58;;;;;;;1.40;0.60;;;;;;;;;;5058981;28;20048;-56
2021/11/22 07:10:25;;;;;;;0.73;0.43;;;;;;;;;;5056430;28;20416;-58
2021/11/22 07:12:51;;;;;;;0.98;0.52;;;;;;;;;;5062438;28;20021;-57
2021/11/22 07:15:21;;;;;;;0.57;0.50;;;;;;;;;;5051159;28;20028;-58
2021/11/22 07:17:51;;;;;;;0.50;0.50;;;;;;;;;;5048863;28;20078;-58
2021/11/22 07:20:18;;;;;;;0.70;0.57;;;;;;;;;;5046005;28;20049;-58
2021/11/22 07:22:44;;;;;;;0.80;0.47;;;;;;;;;;5054383;28;20495;-56
2021/11/22 07:25:10;;;;;;;0.32;0.32;;;;;;;;;;5043443;28;20055;-57
2021/11/22 07:27:36;;;;;;;1.27;0.70;;;;;;;;;;5051232;28;20444;-56
2021/11/22 07:30:04;;;;;;;0.88;0.60;;;;;;;;;;5055805;28;20624;-57
2021/11/22 07:32:30;;;;;;;1.15;0.68;;;;;;;;;;5039635;28;20117;-56
2021/11/22 07:34:56;;;;;;;0.82;0.57;;;;;;;;;;5054758;28;20082;-58
2021/11/22 07:37:22;;;;;;;1.50;0.60;;;;;;;;;;5051190;28;20021;-58
2021/11/22 07:39:48;;;;;;;0.80;0.70;;;;;;;;;;5045543;28;20039;-56
2021/11/22 07:42:14;;;;;;;0.95;0.68;;;;;;;;;;5044961;28;20359;-57
2021/11/22 07:44:41;;;;;;;0.80;0.50;;;;;;;;;;5055516;28;20032;-57
2021/11/22 07:47:07;;;;;;;1.85;0.70;;;;;;;;;;5049024;28;20029;-56
2021/11/22 07:49:33;;;;;;;0.73;0.57;;;;;;;;;;5053763;28;20033;-58
2021/11/22 07:51:59;;;;;;;2.95;0.68;;;;;;;;;;5049954;28;20068;-58
2021/11/22 07:54:26;;;;;;;1.42;1.10;;;;;;;;;;5051138;28;20033;-58
2021/11/22 07:56:52;;;;;;;1.00;0.73;;;;;;;;;;5051915;28;20358;-58
2021/11/22 07:59:20;;;;;;;4.43;3.45;;;;;;;;;;5047641;28;20029;-58
2021/11/22 08:01:46;;;;;;;2.42;0.80;;;;;;;;;;5049284;28;20481;-57
2021/11/22 08:04:13;;;;;;;1.40;0.70;;;;;;;;;;5048672;28;20073;-58
2021/11/22 08:06:40;;;;;;;0.85;0.60;;;;;;;;;;5052894;28;20354;-56
2021/11/22 08:09:12;;;;;;;3.40;0.82;;;;;;;;;;5053819;28;20029;-58
2021/11/22 08:12:40;;;;;;;1.25;0.50;;;;;;;;;;5047850;28;20063;-58
2021/11/22 08:14:34;;;;;;;1.77;0.80;;;;;;;;;;5053908;28;20064;-58
2021/11/22 08:17:00;;;;;;;0.77;0.60;;;;;;;;;;5046290;28;20104;-58
2021/11/22 08:19:26;;;;;;;1.45;0.80;;;;;;;;;;5050697;28;20155;-57
2021/11/22 08:21:52;;;;;;;0.80;0.60;;;;;;;;;;5050629;28;20364;-57
2021/11/22 08:24:18;;;;;;;1.15;0.60;;;;;;;;;;5050033;28;20037;-58
2021/11/22 08:26:45;;;;;;;0.98;0.60;;;;;;;;;;5046546;28;20029;-58
2021/11/22 08:29:11;;;;;;;1.95;0.73;;;;;;;;;;5047658;28;20440;-56
2021/11/22 08:31:37;;;;;;;0.57;0.57;;;;;;;;;;5053520;28;20028;-58
2021/11/22 08:34:03;;;;;;;0.90;0.80;;;;;;;;;;5041081;28;20532;-58
2021/11/22 08:36:29;;;;;;;2.50;0.50;;;;;;;;;;5049757;28;20041;-57
2021/11/22 08:38:55;;;;;;;4.65;0.63;;;;;;;;;;5048561;28;20103;-56
2021/11/22 08:41:21;;;;;;;0.80;0.70;;;;;;;;;;5043169;28;20043;-58
2021/11/22 08:43:47;;;;;;;2.13;0.93;;;;;;;;;;5040918;28;20041;-56
2021/11/22 08:46:13;;;;;;;1.45;1.33;;;;;;;;;;5048940;28;20107;-58
2021/11/22 08:48:39;;;;;;;1.17;1.00;;;;;;;;;;5049337;28;20037;-57
2021/11/22 08:51:05;;;;;;;1.40;0.70;;;;;;;;;;5051081;28;20057;-57
2021/11/22 08:53:35;;;;;;;0.47;0.45;;;;;;;;;;5042381;28;20402;-57
2021/11/22 08:56:01;;;;;;;0.40;0.40;;;;;;;;;;5057261;28;20029;-58
2021/11/22 08:58:27;;;;;;;1.20;0.52;;;;;;;;;;5052409;28;20086;-57
2021/11/22 09:00:53;;;;;;;0.73;0.60;;;;;;;;;;5049236;28;20025;-58
2021/11/22 09:03:19;;;;;;;1.98;0.88;;;;;;;;;;5046652;28;20029;-57
2021/11/22 09:05:45;;;;;;;0.68;0.60;;;;;;;;;;5051435;28;20098;-56
2021/11/22 09:08:12;;;;;;;3.88;0.55;;;;;;;;;;5040538;28;20029;-56
2021/11/22 09:10:39;;;;;;;3.60;0.82;;;;;;;;;;5042520;28;20464;-58
2021/11/22 09:13:05;;;;;;;1.20;0.50;;;;;;;;;;5047559;28;20027;-58
2021/11/22 09:15:32;;;;;;;1.70;0.57;;;;;;;;;;5050665;28;20112;-59
2021/11/22 09:17:58;;;;;;;0.75;0.50;;;;;;;;;;5036960;28;20029;-57
2021/11/22 09:20:25;;;;;;;0.30;0.30;;;;;;;;;;5040503;28;20460;-58
2021/11/22 09:22:56;;;;;;;0.63;0.43;;;;;;;;;;5046149;28;20020;-59
2021/11/22 09:25:22;;;;;;;0.57;0.40;;;;;;;;;;5047806;28;20666;-59
2021/11/22 09:27:50;;;;;;;0.50;0.40;;;;;;;;;;5046218;28;20060;-59
2021/11/22 09:30:16;;;;;;;0.20;0.20;;;;;;;;;;5047719;28;20132;-56
2021/11/22 09:32:42;;;;;;;0.45;0.40;;;;;;;;;;5039818;28;20033;-59
2021/11/22 09:35:08;;;;;;;2.20;0.30;;;;;;;;;;5052341;28;20029;-58
2021/11/22 09:37:35;;;;;;;0.68;0.30;;;;;;;;;;5045467;28;20071;-58
2021/11/22 09:40:01;;;;;;;1.00;0.40;;;;;;;;;;5042709;28;20088;-58
2021/11/22 09:42:27;;;;;;;0.32;0.30;;;;;;;;;;5047760;28;20025;-55
2021/11/22 09:44:53;;;;;;;2.03;0.30;;;;;;;;;;5041279;28;20045;-58
2021/11/22 09:47:20;;;;;;;0.70;0.30;;;;;;;;;;5048243;28;20926;-57
2021/11/22 09:49:46;;;;;;;0.75;0.50;;;;;;;;;;5050219;28;20021;-57
2021/11/22 09:52:12;;;;;;;0.63;0.38;;;;;;;;;;5056147;28;20016;-58
2021/11/22 09:54:38;;;;;;;0.45;0.40;;;;;;;;;;5043900;28;20534;-56
2021/11/22 09:57:04;;;;;;;0.50;0.40;;;;;;;;;;5050275;28;20033;-58
2021/11/22 09:59:30;;;;;;;0.80;0.38;;;;;;;;;;5039761;28;20060;-58
2021/11/22 10:01:57;;;;;;;2.83;0.25;;;;;;;;;;5044340;28;20080;-58
2021/11/22 10:04:28;;;;;;;0.50;0.25;;;;;;;;;;5041813;28;20032;-56
2021/11/22 10:06:55;;;;;;;0.52;0.38;;;;;;;;;;5049765;28;20385;-57
2021/11/22 10:09:34;;;;;;;0.50;0.25;;;;;;;;;;5045645;28;20104;-57
2021/11/22 10:12:04;;;;;;;0.47;0.30;;;;;;;;;;5047625;28;20025;-58
2021/11/22 10:14:35;;;;;;;0.45;0.28;;;;;;;;;;5045341;28;20025;-57
2021/11/22 10:17:01;;;;;;;0.60;0.30;;;;;;;;;;5045153;28;20025;-58
2021/11/22 10:19:27;;;;;;;0.65;0.28;;;;;;;;;;5044787;28;20546;-58
2021/11/22 10:21:53;;;;;;;0.38;0.20;;;;;;;;;;5045644;28;20033;-58
2021/11/22 10:24:19;;;;;;;0.32;0.20;;;;;;;;;;5044247;28;20025;-58
2021/11/22 10:26:49;;;;;;;0.20;0.13;;;;;;;;;;5046033;28;20745;-58
2021/11/22 10:29:28;;;;;;;0.45;0.30;;;;;;;;;;5044020;28;20052;-58
2021/11/22 10:31:55;;;;;;;0.40;0.20;;;;;;;;;;5041830;28;20031;-59
2021/11/22 10:34:24;;;;;;;0.73;0.10;;;;;;;;;;5044049;28;20053;-59
2021/11/22 10:36:57;;;;;;;0.40;0.20;;;;;;;;;;5044620;28;20354;-57
2021/11/22 10:39:23;;;;;;;0.20;0.10;;;;;;;;;;5044528;28;20021;-57
2021/11/22 10:41:49;;;;;;;1.58;0.30;;;;;;;;;;5054998;28;20431;-59
2021/11/22 10:44:15;;;;;;;0.20;0.10;;;;;;;;;;5044024;28;20025;-58
2021/11/22 10:46:54;;;;;;;2.65;0.20;;;;;;;;;;5041508;28;20038;-58
2021/11/22 10:52:35;;;;;;;0.40;0.20;;;;;;;;;;5064880;28;20036;-58
2021/11/22 10:55:04;;;;;;;0.32;0.15;;;;;;;;;;5050374;28;20041;-57
2021/11/22 10:57:33;;;;;;;0.38;0.10;;;;;;;;;;5049281;28;20091;-57
2021/11/22 10:59:59;;;;;;;0.30;0.10;;;;;;;;;;5048612;28;20033;-58
2021/11/22 11:02:41;;;;;;;0.88;0.17;;;;;;;;;;5051085;28;20111;-59
2021/11/22 11:05:07;;;;;;;0.95;0.10;;;;;;;;;;5052630;28;20029;-58
2021/11/22 11:07:33;;;;;;;0.10;0.00;;;;;;;;;;5062875;28;20099;-59
2021/11/22 11:10:00;;;;;;;0.20;0.10;;;;;;;;;;5060752;28;20039;-59
2021/11/22 11:12:27;;;;;;;0.95;0.60;;;;;;;;;;5061902;28;20453;-59
2021/11/22 11:14:54;;;;;;;0.30;0.10;;;;;;;;;;5060514;28;20119;-59
2021/11/22 11:17:31;;;;;;;0.30;0.22;;;;;;;;;;5055516;28;20040;-59
2021/11/22 11:20:00;;;;;;;0.00;0.00;;;;;;;;;;5061959;28;20021;-57
2021/11/22 11:22:27;;;;;;;0.05;0.05;;;;;;;;;;5055387;28;20358;-59
2021/11/22 11:24:56;;;;;;;0.28;0.10;;;;;;;;;;5050535;28;20116;-58
2021/11/22 11:27:22;;;;;;;0.22;0.10;;;;;;;;;;5062715;28;20116;-58
2021/11/22 11:29:48;;;;;;;0.40;0.08;;;;;;;;;;5062020;28;20028;-58
2021/11/22 11:32:14;;;;;;;0.03;0.00;;;;;;;;;;5056808;28;20065;-58
2021/11/22 11:34:45;;;;;;;0.13;0.13;;;;;;;;;;5051520;28;20503;-56
2021/11/22 11:37:31;;;;;;;1.55;0.28;;;;;;;;;;5053373;28;20534;-57
2021/11/22 11:39:56;;;;;;;2.17;0.10;;;;;;;;;;5050288;28;20044;-57
2021/11/22 11:42:46;;;;;;;1.35;0.20;;;;;;;;;;5054759;28;20026;-58
2021/11/22 11:45:19;;;;;;;0.28;0.10;;;;;;;;;;5050984;28;20491;-57
2021/11/22 11:47:45;;;;;;;;;;;;;;;;;;5053584;28;20396;-58
2021/11/22 11:50:21;;;;;;;0.32;0.03;;;;;;;;;;5054502;28;19915;-57
2021/11/22 11:52:58;;;;;;;1.10;0.20;;;;;;;;;;5046365;28;20047;-59
2021/11/22 11:55:24;;;;;;;0.20;0.17;;;;;;;;;;5054812;28;21416;-58
2021/11/22 11:57:50;;;;;;;0.20;0.20;;;;;;;;;;5053122;28;20044;-58
2021/11/22 12:00:26;;;;;;;0.10;0.10;;;;;;;;;;5051646;28;20028;-57
2021/11/22 12:03:00;;;;;;;0.17;0.13;;;;;;;;;;5047021;28;20040;-58
2021/11/22 12:05:25;;;;;;;;;;;;;;;;;;5051300;28;20107;-57
2021/11/22 12:07:52;;;;;;;0.20;0.20;;;;;;;;;;5048237;28;20343;-56
2021/11/22 12:10:22;;;;;;;0.10;0.10;;;;;;;;;;5051553;28;20029;-57
2021/11/22 12:12:52;;;;;;;0.73;0.20;;;;;;;;;;5052866;28;20436;-58
2021/11/22 12:15:18;;;;;;;0.32;0.13;;;;;;;;;;5051893;28;20105;-57
2021/11/22 12:17:44;;;;;;;0.65;0.30;;;;;;;;;;5055780;28;20515;-57
2021/11/22 12:20:36;;;;;;;0.55;0.10;;;;;;;;;;5049867;28;20076;-56
2021/11/22 12:23:06;;;;;;;1.10;0.30;;;;;;;;;;5046295;28;20115;-59
2021/11/22 12:25:39;;;;;;;0.03;0.03;;;;;;;;;;5049796;28;20029;-59
2021/11/22 12:28:12;;;;;;;0.17;0.17;;;;;;;;;;5055453;28;20024;-58
2021/11/22 12:30:41;;;;;;;0.10;0.00;;;;;;;;;;5044156;28;20033;-58
2021/11/22 12:33:25;;;;;;;0.17;0.10;;;;;;;;;;5050767;28;20053;-58
2021/11/22 12:35:56;;;;;;;0.10;0.10;;;;;;;;;;5048388;28;20029;-58
2021/11/22 12:38:23;;;;;;;0.17;0.17;;;;;;;;;;5048910;28;20124;-56
2021/11/22 12:40:50;;;;;;;0.45;0.10;;;;;;;;;;5049056;28;20054;-57
2021/11/22 12:43:17;;;;;;;0.40;0.15;;;;;;;;;;5050828;28;20060;-56
2021/11/22 12:45:59;;;;;;;0.88;0.40;;;;;;;;;;5053098;28;20091;-55
2021/11/22 12:48:32;;;;;;;0.10;0.10;;;;;;;;;;5049392;28;20028;-58
2021/11/22 12:51:00;;;;;;;0.38;0.15;;;;;;;;;;5048343;28;20032;-57
2021/11/22 12:53:26;;;;;;;0.40;0.20;;;;;;;;;;5051391;28;20078;-57
2021/11/22 12:55:53;;;;;;;0.10;0.10;;;;;;;;;;5047131;28;20032;-57
2021/11/22 12:58:24;;;;;;;0.13;0.13;;;;;;;;;;5049947;28;20078;-55
2021/11/22 13:00:51;;;;;;;0.52;0.20;;;;;;;;;;5045820;28;20477;-55
2021/11/22 13:03:19;;;;;;;0.45;0.30;;;;;;;;;;5051860;28;20036;-56
2021/11/22 13:05:54;;;;;;;0.10;0.10;;;;;;;;;;5043315;28;20033;-56
2021/11/22 13:08:20;;;;;;;0.20;0.20;;;;;;;;;;5042458;28;20074;-56
2021/11/22 13:10:49;;;;;;;2.40;0.28;;;;;;;;;;5053975;28;20029;-55
2021/11/22 13:13:27;;;;;;;0.40;0.40;;;;;;;;;;5047469;28;20018;-57
2021/11/22 13:15:54;;;;;;;2.67;0.20;;;;;;;;;;5052513;28;20116;-57
2021/11/22 13:18:21;;;;;;;0.20;0.20;;;;;;;;;;5055675;28;20069;-57
2021/11/22 13:20:47;;;;;;;1.90;0.25;;;;;;;;;;5039960;28;20033;-56
2021/11/22 13:23:14;;;;;;;0.35;0.20;;;;;;;;;;5048926;28;20107;-56
2021/11/22 13:25:40;;;;;;;0.47;0.20;;;;;;;;;;5040912;28;20037;-57
2021/11/22 13:28:26;;;;;;;0.50;0.35;;;;;;;;;;5045783;28;20021;-56
2021/11/22 13:30:53;;;;;;;0.40;0.22;;;;;;;;;;5048249;28;20116;-55
2021/11/22 13:33:19;;;;;;;0.40;0.40;;;;;;;;;;5050032;28;20052;-55
2021/11/22 13:35:46;;;;;;;0.70;0.30;;;;;;;;;;5047612;28;20112;-55
2021/11/22 13:38:17;;;;;;;0.80;0.30;;;;;;;;;;5050713;28;20114;-57
2021/11/22 13:40:45;;;;;;;0.40;0.30;;;;;;;;;;5043849;28;20087;-56
2021/11/22 13:43:12;;;;;;;0.93;0.20;;;;;;;;;;5042018;28;20032;-58
2021/11/22 13:45:39;;;;;;;0.20;0.20;;;;;;;;;;5046039;28;20033;-57
2021/11/22 13:48:06;;;;;;;0.30;0.20;;;;;;;;;;5038520;28;20076;-56
2021/11/22 13:50:45;;;;;;;0.57;0.32;;;;;;;;;;5041385;28;20040;-54
2021/11/22 13:53:14;;;;;;;2.53;0.55;;;;;;;;;;5042097;28;20025;-57
2021/11/22 13:55:41;;;;;;;0.40;0.40;;;;;;;;;;5042216;28;20035;-57
2021/11/22 13:58:15;;;;;;;0.38;0.38;;;;;;;;;;5047202;28;20155;-55
2021/11/22 14:00:51;;;;;;;1.13;0.60;;;;;;;;;;5043367;28;20041;-56
2021/11/22 14:03:17;;;;;;;1.20;0.50;;;;;;;;;;5048797;28;20029;-57
2021/11/22 14:05:44;;;;;;;0.30;0.30;;;;;;;;;;5039579;28;20116;-55
2021/11/22 14:08:11;;;;;;;1.50;0.50;;;;;;;;;;5047524;28;20036;-57
2021/11/22 14:10:38;;;;;;;1.05;0.65;;;;;;;;;;5050127;28;20062;-56
2021/11/22 14:13:08;;;;;;;2.67;0.80;;;;;;;;;;5046318;28;20583;-58
2021/11/22 14:15:36;;;;;;;1.25;0.40;;;;;;;;;;5050423;28;20025;-58
2021/11/22 14:18:03;;;;;;;1.98;0.45;;;;;;;;;;5047070;28;20037;-58
2021/11/22 14:20:29;;;;;;;1.83;0.45;;;;;;;;;;5048675;28;20051;-58
2021/11/22 14:23:04;;;;;;;2.63;0.55;;;;;;;;;;5049749;28;20117;-58
2021/11/22 14:25:32;;;;;;;0.50;0.40;;;;;;;;;;5051629;28;20104;-58
2021/11/22 14:27:59;;;;;;;0.63;0.50;;;;;;;;;;5049184;28;20031;-58
2021/11/22 14:30:26;;;;;;;0.63;0.52;;;;;;;;;;5049170;28;20029;-58
2021/11/22 14:32:52;;;;;;;1.13;0.50;;;;;;;;;;5039545;28;20120;-58
2021/11/22 14:35:20;;;;;;;0.50;0.30;;;;;;;;;;5050409;28;20108;-58
2021/11/22 14:38:06;;;;;;;0.75;0.60;;;;;;;;;;5047831;28;20013;-57
2021/11/22 14:40:32;;;;;;;0.70;0.30;;;;;;;;;;5044409;28;20021;-58
2021/11/22 14:43:12;;;;;;;0.40;0.40;;;;;;;;;;5038143;28;20501;-58
2021/11/22 14:45:42;;;;;;;0.77;0.38;;;;;;;;;;5046634;28;20021;-58
2021/11/22 14:48:19;;;;;;;0.40;0.32;;;;;;;;;;5040233;28;20067;-56
2021/11/22 14:50:57;;;;;;;0.40;0.40;;;;;;;;;;5044021;28;20120;-58